»·PEaware :: CAX948 KORD-KLAS

CAX948 :: KORD-KLAS

FLIGHT INFORMATION

Flight Status: Arrived
Operator:
California Airlines (website)
More flights by this operator :: More flights under this callsign
Pilot: Tony D. (5369)
Aircraft: AIRBUS A320
(A320)
More flights by this aircraft type
Origin: KORD Chicago-O'Hare Intl
United States
Destination: KLAS McCarran Intl
United States
More flights between these airports :: More routes between these airports
Route: +OLINN OREOS OBENE OGALE LNK BRK DVC SINNN SITEE2
File this flight plan on PilotEdge
Remarks: FF A320 ULTIMATE ETA DENVER 1845z
Altitude:
(Current/Filed)
36,000ft
Speed:
(Current/Filed)
450kts
Departed: 06-Jan-18 09:45 AM
Arrived: 06-Jan-18 01:22 PM
Distance/Time
Traveled:
1312nm/3:37
Distance/Time
To Go:
Arrived

Flight Plot

Page will automatically refresh every two minutes.

Flight plan parsing failed; only flown route is shown


Map Options




Map Legend


Flown Route
Filed Route
Departure Airport
Arrival Airport
Navaid (VOR, NDB)
Fix

Horizontal Profiles

Position Reports

Time Latitude Longitude Heading Altitude Ground
Speed
06-Jan-18 09:50 41.940924 -88.483676 274 16205ft 334kts
06-Jan-18 09:51 41.930362 -88.608954 275 18327ft 345kts
06-Jan-18 09:52 41.919514 -88.736278 275 20279ft 354kts
06-Jan-18 09:53 41.911453 -88.867919 279 22101ft 357kts
06-Jan-18 09:54 41.907180 -89.001527 279 23765ft 363kts
06-Jan-18 09:55 41.902669 -89.137893 279 25155ft 373kts
06-Jan-18 09:56 41.893708 -89.276470 274 26395ft 388kts
06-Jan-18 09:57 41.879542 -89.420203 274 27508ft 397kts
06-Jan-18 09:58 41.864877 -89.567238 274 28582ft 404kts
06-Jan-18 09:59 41.850474 -89.709863 273 29491ft 412kts
06-Jan-18 10:00 41.835697 -89.854265 273 30331ft 420kts
06-Jan-18 10:01 41.820381 -90.001994 273 31172ft 425kts
06-Jan-18 10:02 41.804246 -90.155460 272 32163ft 425kts
06-Jan-18 10:03 41.787710 -90.310902 272 33151ft 424kts
06-Jan-18 10:04 41.771150 -90.464523 272 34037ft 422kts
06-Jan-18 10:05 41.754394 -90.618029 272 34844ft 421kts
06-Jan-18 10:06 41.737406 -90.771717 271 35627ft 419kts
06-Jan-18 10:07 41.720175 -90.925640 271 36336ft 419kts
06-Jan-18 10:08 41.703519 -91.072623 271 36755ft 417kts
06-Jan-18 10:09 41.686421 -91.221784 271 36746ft 416kts
06-Jan-18 10:10 41.668841 -91.373330 270 36749ft 417kts
06-Jan-18 10:11 41.651768 -91.518771 270 36749ft 417kts
06-Jan-18 10:12 41.634028 -91.668201 270 36747ft 417kts
06-Jan-18 10:13 41.616130 -91.817279 269 36749ft 418kts
06-Jan-18 10:14 41.597752 -91.968602 269 36757ft 418kts
06-Jan-18 10:15 41.579543 -92.116866 269 36687ft 418kts
06-Jan-18 10:16 41.560750 -92.268198 269 36670ft 417kts
06-Jan-18 10:17 41.541657 -92.420254 269 36701ft 417kts
06-Jan-18 10:18 41.522434 -92.571678 269 36685ft 418kts
06-Jan-18 10:19 41.503262 -92.721083 268 36691ft 418kts
06-Jan-18 10:20 41.484015 -92.869482 268 36700ft 419kts
06-Jan-18 10:21 41.464230 -93.020411 268 36706ft 419kts
06-Jan-18 10:22 41.444142 -93.172038 268 36689ft 419kts
06-Jan-18 10:23 41.423852 -93.323603 267 36665ft 418kts
06-Jan-18 10:24 41.403322 -93.475385 267 36653ft 418kts
06-Jan-18 10:25 41.383271 -93.626588 268 36653ft 417kts
06-Jan-18 10:26 41.363102 -93.777520 266 36656ft 418kts
06-Jan-18 10:27 41.342636 -93.928991 266 36666ft 419kts
06-Jan-18 10:28 41.321856 -94.081213 266 36644ft 419kts
06-Jan-18 10:29 41.301244 -94.230648 266 36603ft 418kts
06-Jan-18 10:30 41.280166 -94.381949 266 36601ft 418kts
06-Jan-18 10:31 41.258847 -94.533459 266 36601ft 418kts
06-Jan-18 10:32 41.237417 -94.684259 265 36608ft 418kts
06-Jan-18 10:33 41.215724 -94.835422 265 36615ft 418kts
06-Jan-18 10:34 41.193943 -94.985710 265 36612ft 417kts
06-Jan-18 10:35 41.178784 -95.089477 265 36602ft 417kts
06-Jan-18 10:36 41.156583 -95.240219 265 36602ft 416kts
06-Jan-18 10:37 41.134243 -95.390445 265 36609ft 415kts
06-Jan-18 10:38 41.111768 -95.540200 265 36607ft 415kts
06-Jan-18 10:39 41.089304 -95.688505 264 36579ft 415kts
06-Jan-18 10:40 41.070394 -95.812320 264 36597ft 416kts
06-Jan-18 10:41 41.051714 -95.933693 264 36604ft 416kts
06-Jan-18 10:42 41.033374 -96.051992 264 36575ft 415kts
06-Jan-18 10:43 41.014633 -96.172043 264 36566ft 415kts
06-Jan-18 10:44 40.991341 -96.320031 264 36575ft 413kts
06-Jan-18 10:45 40.967827 -96.468120 264 36531ft 412kts
06-Jan-18 10:46 40.944284 -96.615117 264 36556ft 412kts
06-Jan-18 10:47 40.919710 -96.761622 260 36551ft 415kts
06-Jan-18 10:48 40.889277 -96.905561 260 36581ft 414kts
06-Jan-18 10:49 40.858471 -97.050455 260 36555ft 412kts
06-Jan-18 10:50 40.827568 -97.194843 260 36474ft 412kts
06-Jan-18 10:51 40.796564 -97.338705 260 36463ft 410kts
06-Jan-18 10:52 40.765832 -97.480372 260 36466ft 409kts
06-Jan-18 10:53 40.734624 -97.623286 261 36470ft 409kts
06-Jan-18 10:54 40.703127 -97.766598 261 36473ft 410kts
06-Jan-18 10:55 40.671529 -97.909393 261 36478ft 407kts
06-Jan-18 10:56 40.639947 -98.051220 261 36451ft 406kts
06-Jan-18 10:57 40.608080 -98.193415 261 36441ft 406kts
06-Jan-18 10:58 40.575994 -98.335645 262 36466ft 404kts
06-Jan-18 10:59 40.544014 -98.476518 262 36455ft 402kts
06-Jan-18 11:00 40.512138 -98.616074 262 36431ft 400kts
06-Jan-18 11:01 40.480445 -98.753999 261 36431ft 402kts
06-Jan-18 11:02 40.448191 -98.893434 262 36457ft 400kts
06-Jan-18 11:03 40.415863 -99.032367 262 36393ft 398kts
06-Jan-18 11:04 40.383443 -99.170873 262 36370ft 397kts
06-Jan-18 11:05 40.350887 -99.309085 262 36393ft 396kts
06-Jan-18 11:06 40.319999 -99.439376 262 36395ft 394kts
06-Jan-18 11:07 40.288482 -99.571641 262 36374ft 392kts
06-Jan-18 11:08 40.259380 -99.693081 261 36392ft 389kts
06-Jan-18 11:09 40.229154 -99.818555 261 36382ft 387kts
06-Jan-18 11:10 40.197426 -99.949416 261 36370ft 387kts
06-Jan-18 11:11 40.164959 -100.082908 261 36304ft 386kts
06-Jan-18 11:12 40.132405 -100.216036 261 36308ft 386kts
06-Jan-18 11:13 40.099618 -100.349188 261 36327ft 386kts
06-Jan-18 11:14 40.067518 -100.478815 261 36325ft 385kts
06-Jan-18 11:15 40.036157 -100.604775 261 36319ft 385kts
06-Jan-18 11:16 40.006000 -100.725305 260 36318ft 386kts
06-Jan-18 11:17 39.973110 -100.856032 260 36350ft 387kts
06-Jan-18 11:18 39.940051 -100.986721 260 36345ft 386kts
06-Jan-18 11:19 39.907870 -101.113272 260 36293ft 385kts
06-Jan-18 11:20 39.877031 -101.233923 260 36238ft 383kts
06-Jan-18 11:21 39.844078 -101.362205 260 36244ft 382kts
06-Jan-18 11:22 39.810529 -101.492132 260 36240ft 381kts
06-Jan-18 11:23 39.776964 -101.621434 260 36245ft 381kts
06-Jan-18 11:24 39.744323 -101.746542 259 36262ft 384kts
06-Jan-18 11:25 39.710352 -101.876038 259 36304ft 384kts
06-Jan-18 11:26 39.675991 -102.006339 259 36287ft 383kts
06-Jan-18 11:27 39.641921 -102.134880 259 36261ft 382kts
06-Jan-18 11:28 39.607406 -102.264443 259 36241ft 381kts
06-Jan-18 11:29 39.572909 -102.393263 259 36234ft 380kts
06-Jan-18 11:30 39.538174 -102.522319 259 36234ft 380kts
06-Jan-18 11:31 39.503598 -102.650128 258 36232ft 379kts
06-Jan-18 11:32 39.469725 -102.774743 258 36246ft 381kts
06-Jan-18 11:33 39.438377 -102.889484 258 36271ft 380kts
06-Jan-18 11:34 39.405274 -103.010103 258 36266ft 379kts
06-Jan-18 11:35 39.370459 -103.136361 258 36246ft 379kts
06-Jan-18 11:36 39.335108 -103.263932 258 36242ft 378kts
06-Jan-18 11:37 39.300408 -103.388511 258 36253ft 377kts
06-Jan-18 11:38 39.266162 -103.510907 258 36239ft 376kts
06-Jan-18 11:39 39.231349 -103.634688 258 36251ft 374kts
06-Jan-18 11:40 39.198764 -103.750072 257 36257ft 375kts
06-Jan-18 11:41 39.165044 -103.868902 257 36290ft 372kts
06-Jan-18 11:42 39.130943 -103.988629 257 36255ft 370kts
06-Jan-18 11:43 39.095807 -104.111402 257 36230ft 369kts
06-Jan-18 11:44 39.060262 -104.234994 257 36230ft 369kts
06-Jan-18 11:45 39.032023 -104.332749 257 36262ft 368kts
06-Jan-18 11:46 38.995334 -104.459231 257 36248ft 366kts
06-Jan-18 11:47 38.966562 -104.558011 257 36236ft 365kts
06-Jan-18 11:48 38.929687 -104.694632 259 36252ft 364kts
06-Jan-18 11:49 38.900141 -104.816061 259 36240ft 366kts
06-Jan-18 11:50 38.875090 -104.918537 259 36251ft 366kts
06-Jan-18 11:51 38.844741 -105.042108 259 36225ft 366kts
06-Jan-18 11:52 38.814355 -105.165189 259 36204ft 365kts
06-Jan-18 11:53 38.778789 -105.308475 258 36316ft 364kts
06-Jan-18 11:54 38.753179 -105.411150 258 36375ft 365kts
06-Jan-18 11:55 38.722259 -105.534495 259 36391ft 364kts
06-Jan-18 11:56 38.691457 -105.656780 258 36371ft 362kts
06-Jan-18 11:57 38.660540 -105.778940 258 36353ft 363kts
06-Jan-18 11:58 38.629386 -105.901377 258 36376ft 363kts
06-Jan-18 11:59 38.598109 -106.023698 258 36361ft 362kts
06-Jan-18 12:00 38.566871 -106.145274 258 36348ft 361kts
06-Jan-18 12:01 38.535463 -106.266891 258 36459ft 360kts
06-Jan-18 12:02 38.504129 -106.387775 258 36483ft 359kts
06-Jan-18 12:03 38.472718 -106.508339 258 36462ft 358kts
06-Jan-18 12:04 38.442084 -106.625285 258 36455ft 358kts
06-Jan-18 12:05 38.411895 -106.740022 257 36435ft 359kts
06-Jan-18 12:06 38.381425 -106.855272 257 36478ft 359kts
06-Jan-18 12:07 38.352253 -106.965128 257 36465ft 358kts
06-Jan-18 12:08 38.321935 -107.078815 257 36402ft 357kts
06-Jan-18 12:09 38.291568 -107.192175 257 36373ft 356kts
06-Jan-18 12:10 38.259838 -107.310093 257 36391ft 355kts
06-Jan-18 12:11 38.228912 -107.424499 257 36456ft 354kts
06-Jan-18 12:12 38.200476 -107.529242 257 36434ft 352kts
06-Jan-18 12:13 38.173281 -107.629038 257 36420ft 351kts
06-Jan-18 12:14 38.148672 -107.719036 256 36423ft 353kts
06-Jan-18 12:15 38.116778 -107.835170 256 36472ft 353kts
06-Jan-18 12:16 38.087386 -107.941726 256 36462ft 352kts
06-Jan-18 12:17 38.060959 -108.037174 256 36439ft 351kts
06-Jan-18 12:18 38.030630 -108.146306 256 36423ft 350kts
06-Jan-18 12:19 38.001469 -108.250803 256 36419ft 349kts
06-Jan-18 12:20 37.971497 -108.357763 256 36232ft 348kts
06-Jan-18 12:21 37.940966 -108.466305 256 36246ft 349kts
06-Jan-18 12:22 37.909457 -108.577859 256 36264ft 350kts
06-Jan-18 12:23 37.878514 -108.686933 256 36265ft 351kts
06-Jan-18 12:24 37.848755 -108.791414 255 36274ft 351kts
06-Jan-18 12:25 37.817908 -108.899274 255 36378ft 349kts
06-Jan-18 12:26 37.788056 -109.015266 257 36467ft 348kts
06-Jan-18 12:27 37.759337 -109.131406 257 36445ft 346kts
06-Jan-18 12:28 37.730562 -109.247252 258 36415ft 347kts
06-Jan-18 12:29 37.701737 -109.362738 257 36424ft 347kts
06-Jan-18 12:30 37.672616 -109.478861 257 36438ft 347kts
06-Jan-18 12:31 37.643613 -109.593971 257 36440ft 347kts
06-Jan-18 12:32 37.614685 -109.708279 257 36440ft 348kts
06-Jan-18 12:33 37.585118 -109.824547 257 36475ft 349kts
06-Jan-18 12:34 37.555397 -109.940862 257 36467ft 348kts
06-Jan-18 12:35 37.526322 -110.054141 257 36440ft 347kts
06-Jan-18 12:36 37.496857 -110.168440 257 36425ft 346kts
06-Jan-18 12:37 37.468434 -110.278208 256 36424ft 345kts
06-Jan-18 12:38 37.438830 -110.392035 256 36432ft 345kts
06-Jan-18 12:39 37.408933 -110.506455 256 36431ft 345kts
06-Jan-18 12:40 37.378954 -110.620683 256 36333ft 344kts
06-Jan-18 12:41 37.349066 -110.734099 256 36353ft 346kts
06-Jan-18 12:42 37.318725 -110.848691 256 36397ft 347kts
06-Jan-18 12:43 37.288315 -110.963023 256 36385ft 346kts
06-Jan-18 12:44 37.257881 -111.076948 256 36355ft 344kts
06-Jan-18 12:45 37.227339 -111.190808 256 36303ft 346kts
06-Jan-18 12:46 37.196448 -111.305456 255 36340ft 349kts
06-Jan-18 12:47 37.165326 -111.420428 255 36378ft 349kts
06-Jan-18 12:48 37.134008 -111.535612 256 36373ft 349kts
06-Jan-18 12:49 37.102766 -111.650020 255 36359ft 348kts
06-Jan-18 12:50 37.071550 -111.763875 255 36368ft 350kts
06-Jan-18 12:51 37.045223 -111.880053 262 36391ft 346kts
06-Jan-18 12:52 37.029897 -111.998145 262 36366ft 344kts
06-Jan-18 12:53 37.014588 -112.115136 262 36339ft 343kts
06-Jan-18 12:54 36.999122 -112.232439 262 36335ft 342kts
06-Jan-18 12:55 36.983542 -112.349405 262 36307ft 341kts
06-Jan-18 12:56 36.967710 -112.466375 262 36325ft 342kts
06-Jan-18 12:57 36.952220 -112.583450 262 36327ft 342kts
06-Jan-18 12:58 36.936659 -112.699958 262 36331ft 343kts
06-Jan-18 12:59 36.920665 -112.816822 261 35481ft 338kts
06-Jan-18 13:00 36.904576 -112.933816 261 34119ft 349kts
06-Jan-18 13:01 36.888233 -113.051779 261 32962ft 353kts
06-Jan-18 13:02 36.871386 -113.172584 261 31826ft 350kts
06-Jan-18 13:03 36.854769 -113.290786 261 30569ft 341kts
06-Jan-18 13:04 36.838607 -113.405078 260 29136ft 335kts
06-Jan-18 13:05 36.822247 -113.519472 260 27343ft 334kts
06-Jan-18 13:06 36.783027 -113.624346 244 25137ft 337kts
06-Jan-18 13:07 36.737692 -113.725421 244 24272ft 342kts
06-Jan-18 13:08 36.691833 -113.827394 243 24267ft 338kts
06-Jan-18 13:09 36.645825 -113.929421 243 24207ft 339kts
06-Jan-18 13:10 36.599707 -114.031378 243 24210ft 339kts
06-Jan-18 13:11 36.551349 -114.132111 241 24209ft 340kts
06-Jan-18 13:12 36.500980 -114.230688 241 24007ft 340kts
06-Jan-18 13:13 36.451690 -114.326732 240 21627ft 311kts
06-Jan-18 13:14 36.407614 -114.412454 240 18869ft 286kts
06-Jan-18 13:15 36.365092 -114.495217 240 16218ft 288kts
06-Jan-18 13:16 36.326173 -114.570732 239 13722ft 271kts
06-Jan-18 13:17 36.282730 -114.636744 208 11609ft 276kts
06-Jan-18 13:18 36.216715 -114.665577 204 10308ft 271kts
06-Jan-18 13:19 36.147040 -114.695567 205 9198ft 253kts
06-Jan-18 13:20 36.084680 -114.724145 223 8482ft 222kts
06-Jan-18 13:21 36.068841 -114.791582 262 7492ft 213kts
06-Jan-18 13:22 36.063244 -114.864539 272 6270ft 208kts
06-Jan-18 13:23 36.070725 -114.931648 289 5039ft 179kts
06-Jan-18 13:24 36.073907 -114.987586 277 4287ft 162kts
06-Jan-18 13:25 36.073816 -115.043592 276 3421ft 167kts
06-Jan-18 13:26 36.073708 -115.097837 273 2591ft 149kts
06-Jan-18 13:27 36.073602 -115.142764 271 2109ft 95kts
06-Jan-18 13:28 36.074848 -115.155504 301 2109ft 0kts
06-Jan-18 13:29 36.075799 -115.156735 315 2109ft 11kts
06-Jan-18 13:30 36.077311 -115.158231 347 2109ft 0kts
06-Jan-18 13:31 36.077379 -115.158250 347 2109ft 0kts
06-Jan-18 13:32 36.077454 -115.158270 347 2109ft 0kts
06-Jan-18 13:33 36.077461 -115.158272 347 2109ft 0kts
06-Jan-18 13:34 36.078052 -115.157171 88 2109ft 14kts
06-Jan-18 13:35 36.078057 -115.151728 89 2109ft 17kts
06-Jan-18 13:36 36.077672 -115.145086 95 2109ft 21kts
06-Jan-18 13:37 36.078542 -115.141600 4 2109ft 7kts
06-Jan-18 13:38 36.079799 -115.140014 24 2109ft 3kts
06-Jan-18 13:39 36.079849 -115.139987 23 2109ft 0kts
06-Jan-18 13:40 36.079849 -115.139987 23 2109ft 0kts
06-Jan-18 13:41 36.079849 -115.139987 23 2109ft 0kts

Navigation Log

Ident Type
Flight plan parsing failed, navigation log unavailable